createdAt,value
2023-01-31T00:02:26.284Z,102964.09
2023-01-31T00:04:54.237Z,102969.38
2023-01-31T00:07:22.180Z,102965.78
2023-01-31T00:09:50.050Z,102965.72
2023-01-31T00:12:17.892Z,102961.28
2023-01-31T00:14:47.178Z,102963.03
2023-01-31T00:17:15.071Z,102966.50
2023-01-31T00:19:42.929Z,102955.88
2023-01-31T00:22:10.860Z,102964.72
2023-01-31T00:24:39.097Z,102949.63
2023-01-31T00:27:08.704Z,102938.97
2023-01-31T00:29:37.119Z,102934.50
2023-01-31T00:32:07.108Z,102945.09
2023-01-31T00:34:35.068Z,102935.38
2023-01-31T00:37:02.990Z,102941.53
2023-01-31T00:39:30.862Z,102936.16
2023-01-31T00:41:58.788Z,102933.50
2023-01-31T00:44:26.675Z,102927.34
2023-01-31T00:46:54.588Z,102916.72
2023-01-31T00:49:23.935Z,102922.00
2023-01-31T00:51:51.839Z,102917.47
2023-01-31T00:54:19.945Z,102923.66
2023-01-31T00:56:47.820Z,102920.94
2023-01-31T00:59:15.720Z,102912.06
2023-01-31T01:01:43.655Z,102908.53
2023-01-31T01:04:11.741Z,102915.66
2023-01-31T01:06:41.977Z,102914.75
2023-01-31T01:09:09.881Z,102909.38
2023-01-31T01:11:37.801Z,102910.28
2023-01-31T01:14:05.762Z,102903.22
2023-01-31T01:16:35.531Z,102912.91
2023-01-31T01:19:04.128Z,102897.81
2023-01-31T01:21:32.440Z,102891.59
2023-01-31T01:24:02.649Z,102840.50
2023-01-31T01:26:31.918Z,102885.31
2023-01-31T01:29:00.343Z,102882.66
2023-01-31T01:31:30.390Z,102881.75
2023-01-31T01:33:59.491Z,102874.59
2023-01-31T01:36:27.622Z,102872.81
2023-01-31T01:38:55.579Z,102872.78
2023-01-31T01:41:24.909Z,102869.22
2023-01-31T01:43:53.989Z,102871.06
2023-01-31T01:46:25.587Z,102858.78
2023-01-31T01:48:55.499Z,102867.63
2023-01-31T01:51:23.457Z,102862.38
2023-01-31T01:53:53.701Z,102854.50
2023-01-31T01:56:24.959Z,102849.16
2023-01-31T01:58:55.952Z,102849.28
2023-01-31T02:01:23.978Z,102853.78
2023-01-31T02:03:51.876Z,102848.50
2023-01-31T02:06:19.803Z,102823.84
2023-01-31T02:08:47.667Z,102843.22
2023-01-31T02:11:19.034Z,102835.25
2023-01-31T02:13:48.728Z,102841.53
2023-01-31T02:16:16.950Z,102842.50
2023-01-31T02:18:45.108Z,102841.75
2023-01-31T02:22:00.366Z,102843.63
2023-01-31T02:24:51.259Z,102819.91
2023-01-31T02:27:41.997Z,102837.63
2023-01-31T02:30:42.628Z,102814.72
2023-01-31T02:33:16.098Z,102830.63
2023-01-31T02:35:57.411Z,102833.31
2023-01-31T02:38:32.086Z,102830.66
2023-01-31T02:41:02.805Z,102828.03
2023-01-31T02:43:56.050Z,102818.28
2023-01-31T02:46:22.981Z,102820.03
2023-01-31T02:48:54.276Z,102810.22
2023-01-31T02:51:23.111Z,102816.31
2023-01-31T02:53:52.721Z,102818.84
2023-01-31T02:56:23.750Z,102801.97
2023-01-31T02:58:55.706Z,102808.03
2023-01-31T03:01:28.026Z,102788.56
2023-01-31T03:03:59.916Z,102806.97
2023-01-31T03:07:01.762Z,102791.94
2023-01-31T03:09:36.961Z,102806.88
2023-01-31T03:12:22.422Z,102791.81
2023-01-31T03:14:54.089Z,102802.41
2023-01-31T03:17:33.076Z,102802.41
2023-01-31T03:20:06.165Z,102806.06
2023-01-31T03:22:35.455Z,102792.78
2023-01-31T03:25:03.706Z,102794.56
2023-01-31T03:27:31.584Z,102797.19
2023-01-31T03:30:03.806Z,102732.81
2023-01-31T03:32:34.362Z,102762.69
2023-01-31T03:35:03.896Z,102781.19
2023-01-31T03:37:34.163Z,102765.28
2023-01-31T03:40:05.863Z,102756.47
2023-01-31T03:42:36.263Z,102774.09
2023-01-31T03:45:05.978Z,102772.28
2023-01-31T03:47:36.393Z,102773.06
2023-01-31T03:50:08.783Z,102766.84
2023-01-31T03:52:38.496Z,102766.75
2023-01-31T03:55:09.310Z,102750.81
2023-01-31T03:57:40.290Z,102770.13
2023-01-31T04:00:10.632Z,102769.16
2023-01-31T04:02:38.690Z,102753.97
2023-01-31T04:05:09.881Z,102768.09
2023-01-31T04:07:37.979Z,102762.66
2023-01-31T04:10:06.301Z,102755.56
2023-01-31T04:12:37.243Z,102751.03
2023-01-31T04:15:05.626Z,102748.28
2023-01-31T04:17:34.092Z,102756.22
2023-01-31T04:20:02.086Z,102757.97
2023-01-31T04:22:31.393Z,102751.66
2023-01-31T04:24:59.834Z,102754.28
2023-01-31T04:27:27.693Z,102756.03
2023-01-31T04:29:55.567Z,102759.50
2023-01-31T04:32:23.463Z,102754.13
2023-01-31T04:34:51.347Z,102740.78
2023-01-31T04:37:19.236Z,102755.84
2023-01-31T04:39:48.510Z,102750.44
2023-01-31T04:42:16.409Z,102751.34
2023-01-31T04:44:44.417Z,102756.69
2023-01-31T04:47:12.283Z,102753.00
2023-01-31T04:49:40.785Z,102748.56
2023-01-31T04:52:09.518Z,102755.69
2023-01-31T04:54:37.885Z,102743.28
2023-01-31T04:57:07.735Z,102747.69
2023-01-31T04:59:36.135Z,102734.34
2023-01-31T05:02:04.065Z,102738.84
2023-01-31T05:04:31.989Z,102737.03
2023-01-31T05:06:59.914Z,102733.56
2023-01-31T05:09:27.825Z,102729.97
2023-01-31T05:11:55.705Z,102722.16
2023-01-31T05:14:24.995Z,102738.19
2023-01-31T05:16:52.883Z,102723.16
2023-01-31T05:19:20.752Z,102727.69
2023-01-31T05:21:59.200Z,102718.00
2023-01-31T05:24:28.144Z,102721.72
2023-01-31T05:26:58.698Z,102720.03
2023-01-31T05:29:28.407Z,102723.66
2023-01-31T05:31:57.514Z,102720.13
2023-01-31T05:34:26.285Z,102719.28
2023-01-31T05:36:54.159Z,102724.59
2023-01-31T05:39:22.113Z,102729.03
2023-01-31T05:41:50.174Z,102727.22
2023-01-31T05:44:18.198Z,102717.47
2023-01-31T05:46:48.938Z,102725.34
2023-01-31T05:49:17.912Z,102701.41
2023-01-31T05:51:45.803Z,102711.94
2023-01-31T05:54:13.767Z,102723.28
2023-01-31T05:56:41.695Z,102717.00
2023-01-31T05:59:09.767Z,102717.81
2023-01-31T06:01:37.733Z,102711.50
2023-01-31T06:04:07.214Z,102676.31
2023-01-31T06:06:35.125Z,102718.44
2023-01-31T06:09:02.967Z,102713.97
2023-01-31T06:11:30.932Z,102703.28
2023-01-31T06:13:59.619Z,102706.72
2023-01-31T06:16:27.681Z,102702.31
2023-01-31T06:18:57.087Z,102699.63
2023-01-31T06:21:26.422Z,102692.47
2023-01-31T06:23:54.309Z,102710.19
2023-01-31T06:26:22.249Z,102695.03
2023-01-31T06:28:50.197Z,102698.56
2023-01-31T06:31:19.342Z,102703.00
2023-01-31T06:33:48.200Z,102703.84
2023-01-31T06:36:18.835Z,102700.25
2023-01-31T06:38:51.739Z,102703.78
2023-01-31T06:41:19.787Z,102703.66
2023-01-31T06:43:47.671Z,102702.78
2023-01-31T06:46:15.640Z,102692.88
2023-01-31T06:48:43.929Z,102702.63
2023-01-31T06:51:11.957Z,102691.94
2023-01-31T06:53:39.831Z,102693.69
2023-01-31T06:56:09.526Z,102687.44
2023-01-31T06:58:37.409Z,102696.31
2023-01-31T07:01:06.664Z,102688.31
2023-01-31T07:03:34.538Z,102683.84
2023-01-31T07:06:02.518Z,102690.00
2023-01-31T07:08:33.845Z,102685.50
2023-01-31T07:11:02.892Z,102695.25
2023-01-31T07:13:32.513Z,102686.31
2023-01-31T07:16:00.578Z,102681.91
2023-01-31T07:18:28.744Z,102697.03
2023-01-31T07:20:56.626Z,102698.00
2023-01-31T07:23:24.569Z,102698.19
2023-01-31T07:25:52.441Z,102692.06
2023-01-31T07:28:20.313Z,102708.13
2023-01-31T07:30:51.600Z,102709.13
2023-01-31T07:33:19.917Z,102707.31
2023-01-31T07:35:47.815Z,102704.75
2023-01-31T07:38:15.777Z,102706.47
2023-01-31T07:40:43.671Z,102700.34
2023-01-31T07:43:11.581Z,102697.72
2023-01-31T07:45:42.793Z,102686.38
2023-01-31T07:48:12.516Z,102719.88
2023-01-31T07:50:40.431Z,102725.22
2023-01-31T07:53:08.323Z,102716.31
2023-01-31T07:55:36.229Z,102717.22
2023-01-31T07:58:04.102Z,102705.66
2023-01-31T08:00:49.988Z,102676.47
2023-01-31T08:03:37.095Z,102702.97
2023-01-31T08:06:07.940Z,102708.28
2023-01-31T08:08:36.461Z,102715.34
2023-01-31T08:11:05.585Z,102711.72
2023-01-31T08:13:33.917Z,102710.88
2023-01-31T08:16:01.943Z,102710.78
2023-01-31T08:18:31.836Z,102703.63
2023-01-31T08:21:00.479Z,102707.97
2023-01-31T08:23:28.552Z,102707.03
2023-01-31T08:26:01.159Z,102705.31
2023-01-31T08:28:29.419Z,102700.91
2023-01-31T08:31:08.280Z,102717.88
2023-01-31T08:33:39.695Z,102720.47
2023-01-31T08:36:14.432Z,102723.97
2023-01-31T08:38:42.999Z,102719.53
2023-01-31T08:41:11.526Z,102716.06
2023-01-31T08:43:54.101Z,102729.34
2023-01-31T08:46:23.690Z,102724.88
2023-01-31T08:48:53.254Z,102730.19
2023-01-31T08:51:21.424Z,102724.94
2023-01-31T08:53:49.598Z,102719.63
2023-01-31T08:56:17.544Z,102735.50
2023-01-31T08:58:45.607Z,102733.72
2023-01-31T09:01:14.965Z,102733.75
2023-01-31T09:03:45.202Z,102739.97
2023-01-31T09:06:17.037Z,102748.91
2023-01-31T09:08:45.069Z,102749.81
2023-01-31T09:11:17.255Z,102740.16
2023-01-31T09:13:45.483Z,102750.78
2023-01-31T09:16:14.081Z,102747.22
2023-01-31T09:18:42.273Z,102745.56
2023-01-31T09:21:11.504Z,102754.38
2023-01-31T09:23:42.727Z,102757.88
2023-01-31T09:26:10.896Z,102761.44
2023-01-31T09:28:38.845Z,102760.47
2023-01-31T09:31:07.755Z,102764.91
2023-01-31T09:33:35.773Z,102761.31
2023-01-31T09:36:04.960Z,102765.72
2023-01-31T09:38:33.066Z,102774.56
2023-01-31T09:41:04.314Z,102772.72
2023-01-31T09:43:37.559Z,102770.03
2023-01-31T09:46:06.763Z,102779.66
2023-01-31T09:48:36.934Z,102775.28
2023-01-31T09:51:05.152Z,102772.59
2023-01-31T09:53:34.466Z,102765.53
2023-01-31T09:56:13.349Z,102761.16
2023-01-31T09:58:46.828Z,102767.31
2023-01-31T10:01:18.397Z,102770.78
2023-01-31T10:03:59.311Z,102768.91
2023-01-31T10:06:29.282Z,102779.44
2023-01-31T10:09:00.347Z,102755.56
2023-01-31T10:11:38.256Z,102794.53
2023-01-31T10:14:11.517Z,102801.09
2023-01-31T10:16:39.874Z,102798.69
2023-01-31T10:19:09.401Z,102802.47
2023-01-31T10:21:39.973Z,102801.81
2023-01-31T10:24:12.878Z,102804.47
2023-01-31T10:26:42.588Z,102797.38
2023-01-31T10:29:13.748Z,102802.69
2023-01-31T10:31:44.260Z,102800.84
2023-01-31T10:34:13.575Z,102809.56
2023-01-31T10:36:44.113Z,102791.03
2023-01-31T10:39:16.130Z,102803.16
2023-01-31T10:41:50.978Z,102818.94
2023-01-31T10:44:24.578Z,102824.84
2023-01-31T10:46:53.747Z,102823.66
2023-01-31T10:49:21.667Z,102823.38
2023-01-31T10:52:10.698Z,102823.78
2023-01-31T10:54:44.221Z,102824.19
2023-01-31T10:57:13.571Z,102826.66
2023-01-31T10:59:43.923Z,102827.50
2023-01-31T11:02:19.387Z,102823.88
2023-01-31T11:04:47.359Z,102828.25
2023-01-31T11:07:15.332Z,102831.72
2023-01-31T11:09:44.975Z,102826.38
2023-01-31T11:12:14.264Z,102820.16
2023-01-31T11:14:42.165Z,102822.66
2023-01-31T11:17:15.279Z,102826.13
2023-01-31T11:19:46.209Z,102821.50
2023-01-31T11:22:21.687Z,102820.56
2023-01-31T11:24:49.547Z,102824.00
2023-01-31T11:27:27.622Z,102812.44
2023-01-31T11:29:59.927Z,102815.84
2023-01-31T11:32:29.590Z,102815.84
2023-01-31T11:34:58.482Z,102827.47
2023-01-31T11:37:26.408Z,102826.41
2023-01-31T11:39:58.397Z,102832.47
2023-01-31T11:42:27.907Z,102825.28
2023-01-31T11:44:57.084Z,102824.22
2023-01-31T11:47:32.702Z,102833.22
2023-01-31T11:50:01.231Z,102820.44
2023-01-31T11:52:33.231Z,102825.69
2023-01-31T11:55:02.867Z,102816.56
2023-01-31T11:57:33.679Z,102828.47
2023-01-31T12:00:02.928Z,102832.09
2023-01-31T12:02:34.549Z,102838.44
2023-01-31T12:05:03.391Z,102835.28
2023-01-31T12:07:33.703Z,102832.34
2023-01-31T12:10:01.665Z,102831.84
2023-01-31T12:12:33.892Z,102834.56
2023-01-31T12:15:04.904Z,102838.84
2023-01-31T12:17:33.552Z,102834.25
2023-01-31T12:20:26.992Z,102837.84
2023-01-31T12:23:00.865Z,102832.34
2023-01-31T12:25:34.121Z,102820.56
2023-01-31T12:28:08.169Z,102824.78
2023-01-31T12:30:46.242Z,102819.56
2023-01-31T12:33:21.574Z,102815.22
2023-01-31T12:35:55.956Z,102808.97
2023-01-31T12:38:40.378Z,102813.38
2023-01-31T12:41:13.680Z,102799.19
2023-01-31T12:43:50.323Z,102812.41
2023-01-31T12:46:23.464Z,102804.69
2023-01-31T12:49:00.016Z,102812.53
2023-01-31T12:51:34.918Z,102816.16
2023-01-31T12:54:09.774Z,102822.16
2023-01-31T12:56:51.372Z,102812.88
2023-01-31T12:59:28.085Z,102790.38
2023-01-31T13:01:59.560Z,102797.97
2023-01-31T13:04:34.900Z,102811.09
2023-01-31T13:07:04.673Z,102819.66
2023-01-31T13:09:33.341Z,102807.09
2023-01-31T13:12:05.286Z,102815.03
2023-01-31T13:14:34.305Z,102805.78
2023-01-31T13:17:04.935Z,102804.03
2023-01-31T13:19:34.587Z,102815.88
2023-01-31T13:22:04.156Z,102785.69
2023-01-31T13:24:34.096Z,102800.84
2023-01-31T13:27:04.876Z,102792.94
2023-01-31T13:29:34.765Z,102781.41
2023-01-31T13:32:06.024Z,102793.25
2023-01-31T13:34:37.241Z,102807.66
2023-01-31T13:37:07.027Z,102792.22
2023-01-31T13:39:38.009Z,102791.56
2023-01-31T13:42:06.163Z,102793.06
2023-01-31T13:44:34.104Z,102793.84
2023-01-31T13:47:04.692Z,102794.97
2023-01-31T13:49:34.164Z,102798.56
2023-01-31T13:52:03.497Z,102787.75
2023-01-31T13:54:33.472Z,102793.50
2023-01-31T13:57:01.600Z,102785.91
2023-01-31T13:59:30.951Z,102795.25
2023-01-31T14:02:00.855Z,102786.44
2023-01-31T14:04:37.816Z,102800.03
2023-01-31T14:07:21.543Z,102804.81
2023-01-31T14:10:37.080Z,102791.97
2023-01-31T14:13:41.817Z,102812.06
2023-01-31T14:16:42.107Z,102808.53
2023-01-31T14:19:56.069Z,102802.94
2023-01-31T14:22:26.052Z,102789.22
2023-01-31T14:24:57.327Z,102808.09
2023-01-31T14:27:26.038Z,102801.75
2023-01-31T14:29:58.054Z,102799.81
2023-01-31T14:32:29.761Z,102805.56
2023-01-31T14:34:57.635Z,102798.75
2023-01-31T14:37:34.036Z,102803.03
2023-01-31T14:40:23.105Z,102811.38
2023-01-31T14:43:13.186Z,102816.25
2023-01-31T14:45:57.231Z,102807.75
2023-01-31T14:48:34.971Z,102809.06
2023-01-31T14:51:10.576Z,102807.94
2023-01-31T14:54:06.172Z,102807.38
2023-01-31T14:56:52.486Z,102801.34
2023-01-31T14:59:29.467Z,102809.31
2023-01-31T15:01:57.691Z,102803.16
2023-01-31T15:04:26.502Z,102797.72
2023-01-31T15:06:55.890Z,102810.09
2023-01-31T15:09:37.941Z,102820.22
2023-01-31T15:12:07.980Z,102806.84
2023-01-31T15:14:37.938Z,102809.25
2023-01-31T15:17:31.796Z,102805.59
2023-01-31T15:20:05.739Z,102821.56
2023-01-31T15:22:33.756Z,102818.56
2023-01-31T15:25:09.626Z,102825.41
2023-01-31T15:27:39.265Z,102832.13
2023-01-31T15:30:09.454Z,102834.09
2023-01-31T15:32:40.686Z,102831.75
2023-01-31T15:35:14.343Z,102823.34
2023-01-31T15:37:42.671Z,102842.91
2023-01-31T15:40:19.551Z,102847.59
2023-01-31T15:42:47.705Z,102835.41
2023-01-31T15:45:20.336Z,102836.41
2023-01-31T15:47:59.576Z,102840.13
2023-01-31T15:50:27.802Z,102845.59
2023-01-31T15:52:56.601Z,102840.41
2023-01-31T15:55:25.924Z,102844.06
2023-01-31T15:57:56.882Z,102842.44
2023-01-31T16:00:26.293Z,102840.81
2023-01-31T16:03:00.875Z,102844.44
2023-01-31T16:05:31.581Z,102842.63
2023-01-31T16:07:59.754Z,102834.72
2023-01-31T16:10:29.587Z,102827.50
2023-01-31T16:12:58.276Z,102835.50
2023-01-31T16:15:26.862Z,102817.06
2023-01-31T16:17:55.081Z,102828.53
2023-01-31T16:20:37.655Z,102827.69
2023-01-31T16:23:06.008Z,102819.22
2023-01-31T16:25:36.331Z,102842.28
2023-01-31T16:28:06.180Z,102815.06
2023-01-31T16:30:34.772Z,102836.38
2023-01-31T16:33:02.704Z,102839.13
2023-01-31T16:35:30.915Z,102832.25
2023-01-31T16:38:03.664Z,102855.47
2023-01-31T16:40:32.628Z,102845.81
2023-01-31T16:43:11.261Z,102831.78
2023-01-31T16:45:39.196Z,102836.41
2023-01-31T16:48:22.713Z,102844.50
2023-01-31T16:50:50.697Z,102829.66
2023-01-31T16:53:21.171Z,102841.91
2023-01-31T16:55:57.098Z,102850.81
2023-01-31T16:58:46.560Z,102838.38
2023-01-31T17:01:14.996Z,102834.72
2023-01-31T17:03:42.930Z,102837.34
2023-01-31T17:06:10.828Z,102851.50
2023-01-31T17:08:41.845Z,102836.50
2023-01-31T17:11:13.823Z,102854.09
2023-01-31T17:13:45.769Z,102854.03
2023-01-31T17:16:24.396Z,102859.38
2023-01-31T17:18:53.491Z,102851.44
2023-01-31T17:21:22.819Z,102848.91
2023-01-31T17:23:50.753Z,102840.97
2023-01-31T17:26:19.018Z,102846.34
2023-01-31T17:29:00.794Z,102845.59
2023-01-31T17:31:29.847Z,102849.34
2023-01-31T17:33:57.878Z,102847.69
2023-01-31T17:36:25.778Z,102840.81
2023-01-31T17:38:53.816Z,102847.97
2023-01-31T17:41:24.548Z,102847.19
2023-01-31T17:43:53.954Z,102839.34
2023-01-31T17:46:21.943Z,102843.00
2023-01-31T17:48:49.850Z,102842.13
2023-01-31T17:51:17.793Z,102839.53
2023-01-31T17:53:49.913Z,102841.38
2023-01-31T17:56:18.658Z,102847.59
2023-01-31T17:58:46.677Z,102831.75
2023-01-31T18:01:16.044Z,102851.16
2023-01-31T18:03:44.137Z,102852.03
2023-01-31T18:06:12.117Z,102847.53
2023-01-31T18:08:40.180Z,102852.91
2023-01-31T18:11:08.401Z,102855.56
2023-01-31T18:13:38.036Z,102848.50
2023-01-31T18:16:08.068Z,102863.56
2023-01-31T18:18:40.398Z,102848.50
2023-01-31T18:21:10.214Z,102852.97
2023-01-31T18:23:38.256Z,102848.50
2023-01-31T18:26:06.629Z,102855.59
2023-01-31T18:28:34.624Z,102854.72
2023-01-31T18:31:03.830Z,102861.81
2023-01-31T18:33:31.868Z,102873.34
2023-01-31T18:36:01.664Z,102870.66
2023-01-31T18:38:30.250Z,102865.38
2023-01-31T18:41:00.123Z,102857.41
2023-01-31T18:43:28.033Z,102861.81
2023-01-31T18:45:55.969Z,102866.22
2023-01-31T18:48:23.917Z,102861.00
2023-01-31T18:50:51.841Z,102856.66
2023-01-31T18:53:21.091Z,102858.50
2023-01-31T18:55:48.942Z,102872.72
2023-01-31T18:58:16.822Z,102876.28
2023-01-31T19:00:44.769Z,102877.22
2023-01-31T19:03:12.667Z,102882.56
2023-01-31T19:05:40.609Z,102887.06
2023-01-31T19:08:08.569Z,102888.84
2023-01-31T19:10:37.785Z,102880.94
2023-01-31T19:13:05.826Z,102879.09
2023-01-31T19:15:33.846Z,102881.78
2023-01-31T19:18:01.718Z,102880.94
2023-01-31T19:20:29.650Z,102883.56
2023-01-31T19:22:59.341Z,102888.06
2023-01-31T19:25:27.183Z,102891.59
2023-01-31T19:28:00.123Z,102883.69
2023-01-31T19:30:28.386Z,102887.19
2023-01-31T19:32:56.343Z,102881.91
2023-01-31T19:35:24.213Z,102881.91
2023-01-31T19:37:52.063Z,102880.94
2023-01-31T19:40:19.992Z,102874.72
2023-01-31T19:42:47.910Z,102889.75
2023-01-31T19:45:21.924Z,102891.50
2023-01-31T19:47:50.782Z,102888.81
2023-01-31T19:50:20.209Z,102888.78
2023-01-31T19:52:48.078Z,102894.06
2023-01-31T19:55:15.965Z,102892.25
2023-01-31T19:57:43.871Z,102901.94
2023-01-31T20:00:13.496Z,102879.75
2023-01-31T20:02:43.145Z,102890.31
2023-01-31T20:05:13.019Z,102888.47
2023-01-31T20:07:42.503Z,102880.44
2023-01-31T20:10:11.602Z,102879.50
2023-01-31T20:12:39.609Z,102884.72
2023-01-31T20:15:08.535Z,102870.59
2023-01-31T20:17:36.474Z,102827.47
2023-01-31T20:20:06.244Z,102876.75
2023-01-31T20:22:35.449Z,102831.78
2023-01-31T20:25:03.451Z,102872.28
2023-01-31T20:27:33.740Z,102856.25
2023-01-31T20:30:01.638Z,102856.25
2023-01-31T20:32:29.567Z,102850.03
2023-01-31T20:34:57.718Z,102858.84
2023-01-31T20:37:27.402Z,102862.34
2023-01-31T20:39:55.260Z,102856.97
2023-01-31T20:42:25.662Z,102858.69
2023-01-31T20:44:53.734Z,102861.28
2023-01-31T20:47:21.621Z,102862.09
2023-01-31T20:49:49.480Z,102865.59
2023-01-31T20:52:17.372Z,102855.81
2023-01-31T20:54:46.618Z,102859.34
2023-01-31T20:57:14.546Z,102853.97
2023-01-31T20:59:42.423Z,102854.84
2023-01-31T21:02:10.579Z,102854.09
2023-01-31T21:04:38.750Z,102851.50
2023-01-31T21:07:06.660Z,102851.59
2023-01-31T21:09:34.514Z,102855.28
2023-01-31T21:12:03.795Z,102866.03
2023-01-31T21:14:31.810Z,102858.16
2023-01-31T21:16:59.784Z,102860.91
2023-01-31T21:19:27.715Z,102874.28
2023-01-31T21:21:55.691Z,102878.72
2023-01-31T21:24:23.544Z,102879.66
2023-01-31T21:26:51.493Z,102880.59
2023-01-31T21:29:20.940Z,102873.53
2023-01-31T21:31:48.936Z,102870.91
2023-01-31T21:34:17.050Z,102869.19
2023-01-31T21:36:45.903Z,102863.06
2023-01-31T21:39:13.961Z,102863.94
2023-01-31T21:41:59.553Z,102866.63
2023-01-31T21:44:28.839Z,102850.72
2023-01-31T21:46:56.740Z,102860.50
2023-01-31T21:49:26.414Z,102859.63
2023-01-31T21:51:54.312Z,102866.75
2023-01-31T21:54:22.275Z,102861.44
2023-01-31T21:56:50.193Z,102861.47
2023-01-31T21:59:18.077Z,102873.91
2023-01-31T22:01:47.511Z,102890.75
2023-01-31T22:04:20.517Z,102887.25
2023-01-31T22:06:48.877Z,102888.13
2023-01-31T22:09:16.814Z,102901.44
2023-01-31T22:11:44.784Z,102903.22
2023-01-31T22:14:15.553Z,102894.34
2023-01-31T22:16:43.458Z,102891.69
2023-01-31T22:19:13.372Z,102889.00
2023-01-31T22:21:41.587Z,102835.22
2023-01-31T22:24:11.607Z,102872.19
2023-01-31T22:26:40.681Z,102878.31
2023-01-31T22:29:09.456Z,102862.41
2023-01-31T22:31:37.608Z,102878.31
2023-01-31T22:34:06.117Z,102876.56
2023-01-31T22:36:35.604Z,102881.00
2023-01-31T22:39:03.511Z,102882.72
2023-01-31T22:41:31.836Z,102870.41
2023-01-31T22:43:59.748Z,102888.94
2023-01-31T22:46:28.558Z,102882.72
2023-01-31T22:48:56.580Z,102888.94
2023-01-31T22:51:25.740Z,102895.13
2023-01-31T22:53:55.378Z,102874.78
2023-01-31T22:56:24.620Z,102889.66
2023-01-31T22:58:56.252Z,102880.75
2023-01-31T23:01:25.052Z,102877.16
2023-01-31T23:03:56.826Z,102888.56
2023-01-31T23:06:24.808Z,102873.50
2023-01-31T23:08:54.165Z,102875.19
2023-01-31T23:11:22.170Z,102885.78
2023-01-31T23:13:50.227Z,102885.75
2023-01-31T23:16:19.301Z,102891.91
2023-01-31T23:18:47.226Z,102889.19
2023-01-31T23:21:16.176Z,102889.13
2023-01-31T23:23:44.181Z,102889.13
2023-01-31T23:26:13.480Z,102874.94
2023-01-31T23:28:41.527Z,102874.88
2023-01-31T23:31:09.564Z,102874.03
2023-01-31T23:33:37.535Z,102872.25
2023-01-31T23:36:06.240Z,102865.97
2023-01-31T23:38:34.202Z,102862.44
2023-01-31T23:41:02.130Z,102861.50
2023-01-31T23:43:31.390Z,102864.09
2023-01-31T23:45:59.307Z,102856.09
2023-01-31T23:48:27.250Z,102860.50
2023-01-31T23:50:55.130Z,102863.97
2023-01-31T23:53:23.118Z,102863.94
2023-01-31T23:55:51.001Z,102855.03
2023-01-31T23:58:18.923Z,102853.22
